createdAt,value
2016-09-26T00:00:47.450Z,96.18
2016-09-26T00:01:47.438Z,95.98
2016-09-26T00:02:47.430Z,95.79
2016-09-26T00:03:47.423Z,95.89
2016-09-26T00:04:47.422Z,95.98
2016-09-26T00:05:47.718Z,95.6
2016-09-26T00:06:47.390Z,95.22
2016-09-26T00:07:47.379Z,95.79
2016-09-26T00:08:47.375Z,95.22
2016-09-26T00:09:47.365Z,95.51
2016-09-26T00:10:47.358Z,95.03
2016-09-26T00:11:47.341Z,94.74
2016-09-26T00:12:47.332Z,94.74
2016-09-26T00:13:47.325Z,95.03
2016-09-26T00:14:47.314Z,95.31
2016-09-26T00:15:47.305Z,94.74
2016-09-26T00:16:47.295Z,94.93
2016-09-26T00:17:47.282Z,94.74
2016-09-26T00:18:47.273Z,94.84
2016-09-26T00:19:47.586Z,94.35
2016-09-26T00:20:47.252Z,94.64
2016-09-26T00:21:47.250Z,95.12
2016-09-26T00:22:47.236Z,94.93
2016-09-26T00:23:47.225Z,94.84
2016-09-26T00:24:47.215Z,94.84
2016-09-26T00:25:47.212Z,94.55
2016-09-26T00:26:47.512Z,94.84
2016-09-26T00:27:47.186Z,94.93
2016-09-26T00:28:47.178Z,94.35
2016-09-26T00:29:47.478Z,94.35
2016-09-26T00:30:47.153Z,94.55
2016-09-26T00:31:47.148Z,94.93
2016-09-26T00:32:47.133Z,94.74
2016-09-26T00:33:47.437Z,95.03
2016-09-26T00:34:47.116Z,94.93
2016-09-26T00:35:47.109Z,94.35
2016-09-26T00:36:47.096Z,94.64
2016-09-26T00:37:47.091Z,94.55
2016-09-26T00:38:47.079Z,94.74
2016-09-26T00:39:47.068Z,94.45
2016-09-26T00:40:47.055Z,94.64
2016-09-26T00:41:47.048Z,94.74
2016-09-26T00:42:47.044Z,94.64
2016-09-26T00:43:47.035Z,94.93
2016-09-26T00:44:47.217Z,94.55
2016-09-26T00:45:47.013Z,95.03
2016-09-26T00:46:46.996Z,94.84
2016-09-26T00:47:46.992Z,94.64
2016-09-26T00:48:47.292Z,94.45
2016-09-26T00:49:46.972Z,94.64
2016-09-26T00:50:47.271Z,94.26
2016-09-26T00:51:46.947Z,94.45
2016-09-26T00:52:46.940Z,94.35
2016-09-26T00:53:46.932Z,93.98
2016-09-26T00:54:46.917Z,94.74
2016-09-26T00:55:46.909Z,94.45
2016-09-26T00:56:46.902Z,94.26
2016-09-26T00:57:46.892Z,94.64
2016-09-26T00:58:47.194Z,94.17
2016-09-26T00:59:46.871Z,94.35
2016-09-26T01:00:46.864Z,94.26
2016-09-26T01:01:46.854Z,94.17
2016-09-26T01:02:46.840Z,94.45
2016-09-26T01:03:47.143Z,94.26
2016-09-26T01:04:46.821Z,94.64
2016-09-26T01:05:47.124Z,94.26
2016-09-26T01:06:46.808Z,94.17
2016-09-26T01:07:46.788Z,94.26
2016-09-26T01:08:46.784Z,93.59
2016-09-26T01:09:46.777Z,93.98
2016-09-26T01:10:46.762Z,94.74
2016-09-26T01:11:46.754Z,94.26
2016-09-26T01:12:46.741Z,94.26
2016-09-26T01:13:46.736Z,93.88
2016-09-26T01:14:46.724Z,93.59
2016-09-26T01:15:46.712Z,94.35
2016-09-26T01:16:46.704Z,94.64
2016-09-26T01:17:46.717Z,94.35
2016-09-26T01:18:46.688Z,94.26
2016-09-26T01:19:46.675Z,94.45
2016-09-26T01:20:46.978Z,94.64
2016-09-26T01:21:46.654Z,94.74
2016-09-26T01:22:46.661Z,94.45
2016-09-26T01:23:46.654Z,94.07
2016-09-26T01:24:46.627Z,94.26
2016-09-26T01:25:46.621Z,94.64
2016-09-26T01:26:46.609Z,94.07
2016-09-26T01:27:46.912Z,94.35
2016-09-26T01:28:46.587Z,94.55
2016-09-26T01:29:46.579Z,94.45
2016-09-26T01:30:46.565Z,94.26
2016-09-26T01:31:46.565Z,95.22
2016-09-26T01:32:46.547Z,94.07
2016-09-26T01:33:46.546Z,94.17
2016-09-26T01:34:46.528Z,94.55
2016-09-26T01:35:46.520Z,94.26
2016-09-26T01:36:46.509Z,94.55
2016-09-26T01:37:46.505Z,94.35
2016-09-26T01:38:46.486Z,94.17
2016-09-26T01:39:46.509Z,94.45
2016-09-26T01:40:46.470Z,94.35
2016-09-26T01:41:46.772Z,94.07
2016-09-26T01:42:46.450Z,93.78
2016-09-26T01:43:46.750Z,94.26
2016-09-26T01:44:46.744Z,94.35
2016-09-26T01:45:46.420Z,94.26
2016-09-26T01:46:46.409Z,94.17
2016-09-26T01:47:46.401Z,93.98
2016-09-26T01:48:46.398Z,94.26
2016-09-26T01:49:46.383Z,94.26
2016-09-26T01:50:46.372Z,94.07
2016-09-26T01:51:46.361Z,94.17
2016-09-26T01:52:46.352Z,94.07
2016-09-26T01:53:46.342Z,94.07
2016-09-26T01:54:46.336Z,94.6
2016-09-26T01:55:46.324Z,94.17
2016-09-26T01:56:46.312Z,94.55
2016-09-26T01:57:46.303Z,93.98
2016-09-26T01:58:46.354Z,94.17
2016-09-26T01:59:46.283Z,94.64
2016-09-26T02:00:46.272Z,94.64
2016-09-26T02:01:46.266Z,94.64
2016-09-26T02:02:46.255Z,94.84
2016-09-26T02:03:46.252Z,94.64
2016-09-26T02:04:46.233Z,94.45
2016-09-26T02:05:46.563Z,94.64
2016-09-26T02:06:46.216Z,94.98
2016-09-26T02:07:46.219Z,94.69
2016-09-26T02:08:46.197Z,94.89
2016-09-26T02:09:46.187Z,94.89
2016-09-26T02:10:46.175Z,94.69
2016-09-26T02:11:46.169Z,94.21
2016-09-26T02:12:46.154Z,94.21
2016-09-26T02:13:46.461Z,94.55
2016-09-26T02:14:46.138Z,94.6
2016-09-26T02:15:46.128Z,94.74
2016-09-26T02:16:46.117Z,94.74
2016-09-26T02:17:46.107Z,94.35
2016-09-26T02:18:46.099Z,94.45
2016-09-26T02:19:46.090Z,94.45
2016-09-26T02:20:46.392Z,95.07
2016-09-26T02:21:46.066Z,94.45
2016-09-26T02:22:46.058Z,94.5
2016-09-26T02:23:46.049Z,94.55
2016-09-26T02:24:46.042Z,94.12
2016-09-26T02:25:46.030Z,94.69
2016-09-26T02:26:46.020Z,94.21
2016-09-26T02:27:46.014Z,94.12
2016-09-26T02:28:45.998Z,94.4
2016-09-26T02:29:45.993Z,94.89
2016-09-26T02:30:45.981Z,94.12
2016-09-26T02:31:45.971Z,94.4
2016-09-26T02:32:46.269Z,94.02
2016-09-26T02:33:45.951Z,94.02
2016-09-26T02:34:45.942Z,94.6
2016-09-26T02:35:45.935Z,94.5
2016-09-26T02:36:45.922Z,94.79
2016-09-26T02:37:46.113Z,94.4
2016-09-26T02:38:45.901Z,94.21
2016-09-26T02:39:45.892Z,94.4
2016-09-26T02:40:45.879Z,94.45
2016-09-26T02:41:46.193Z,94.02
2016-09-26T02:42:46.193Z,94.69
2016-09-26T02:43:45.851Z,94.21
2016-09-26T02:44:46.048Z,94.69
2016-09-26T02:45:45.834Z,94.98
2016-09-26T02:46:45.819Z,94.69
2016-09-26T02:47:45.812Z,94.5
2016-09-26T02:48:45.817Z,94.69
2016-09-26T02:49:46.111Z,94.6
2016-09-26T02:50:45.782Z,94.12
2016-09-26T02:51:45.777Z,94.21
2016-09-26T02:52:45.764Z,94.6
2016-09-26T02:53:45.752Z,94.21
2016-09-26T02:54:45.744Z,94.4
2016-09-26T02:55:45.734Z,94.12
2016-09-26T02:56:45.723Z,94.31
2016-09-26T02:57:45.741Z,94.31
2016-09-26T02:58:45.730Z,94.31
2016-09-26T02:59:45.695Z,94.21
2016-09-26T03:00:46.004Z,94.21
2016-09-26T03:01:45.676Z,94.21
2016-09-26T03:02:45.674Z,94.12
2016-09-26T03:03:45.658Z,94.31
2016-09-26T03:04:45.642Z,94.4
2016-09-26T03:05:45.635Z,94.12
2016-09-26T03:06:45.625Z,94.31
2016-09-26T03:07:45.615Z,94.5
2016-09-26T03:08:45.604Z,93.74
2016-09-26T03:09:45.595Z,94.31
2016-09-26T03:10:45.586Z,94.21
2016-09-26T03:11:45.581Z,93.74
2016-09-26T03:12:45.571Z,93.64
2016-09-26T03:13:45.560Z,93.83
2016-09-26T03:14:45.548Z,94.12
2016-09-26T03:15:45.536Z,94.31
2016-09-26T03:16:45.524Z,94.21
2016-09-26T03:17:45.834Z,94.02
2016-09-26T03:18:45.508Z,94.4
2016-09-26T03:19:45.495Z,94.79
2016-09-26T03:20:45.490Z,94.5
2016-09-26T03:21:45.811Z,94.4
2016-09-26T03:22:45.473Z,94.4
2016-09-26T03:23:45.453Z,94.4
2016-09-26T03:24:45.445Z,94.4
2016-09-26T03:25:45.434Z,94.5
2016-09-26T03:26:45.431Z,94.31
2016-09-26T03:27:45.424Z,94.12
2016-09-26T03:28:45.404Z,94.79
2016-09-26T03:29:45.397Z,94.4
2016-09-26T03:30:45.716Z,94.4
2016-09-26T03:31:45.704Z,94.31
2016-09-26T03:32:45.370Z,94.5
2016-09-26T03:33:45.677Z,94.4
2016-09-26T03:34:45.358Z,94.4
2016-09-26T03:35:45.650Z,94.21
2016-09-26T03:36:45.327Z,94.5
2016-09-26T03:37:45.318Z,94.6
2016-09-26T03:38:45.303Z,94.79
2016-09-26T03:39:45.620Z,94.5
2016-09-26T03:40:45.286Z,94.21
2016-09-26T03:41:45.277Z,94.12
2016-09-26T03:42:45.264Z,94.98
2016-09-26T03:43:45.260Z,94.21
2016-09-26T03:44:45.253Z,94.6
2016-09-26T03:45:45.236Z,94.5
2016-09-26T03:46:45.226Z,94.6
2016-09-26T03:47:45.214Z,94.02
2016-09-26T03:48:45.207Z,94.12
2016-09-26T03:49:45.198Z,94.21
2016-09-26T03:50:45.499Z,94.12
2016-09-26T03:51:45.178Z,93.74
2016-09-26T03:52:45.167Z,94.31
2016-09-26T03:53:45.157Z,94.21
2016-09-26T03:54:45.154Z,94.12
2016-09-26T03:55:45.141Z,93.93
2016-09-26T03:56:45.149Z,94.21
2016-09-26T03:57:45.121Z,93.93
2016-09-26T03:58:45.418Z,94.12
2016-09-26T03:59:45.097Z,94.21
2016-09-26T04:00:45.130Z,93.64
2016-09-26T04:01:45.400Z,93.64
2016-09-26T04:02:45.073Z,94.5
2016-09-26T04:03:45.060Z,94.12
2016-09-26T04:04:45.363Z,94.12
2016-09-26T04:05:45.350Z,94.21
2016-09-26T04:06:45.343Z,94.31
2016-09-26T04:07:45.013Z,94.31
2016-09-26T04:08:45.004Z,94.21
2016-09-26T04:09:44.997Z,94.31
2016-09-26T04:10:45.296Z,94.12
2016-09-26T04:11:44.981Z,94.4
2016-09-26T04:12:44.966Z,94.12
2016-09-26T04:13:44.954Z,94.21
2016-09-26T04:14:44.945Z,94.69
2016-09-26T04:15:44.941Z,94.5
2016-09-26T04:16:44.925Z,94.4
2016-09-26T04:17:44.959Z,94.5
2016-09-26T04:18:44.905Z,94.79
2016-09-26T04:19:44.897Z,95.07
2016-09-26T04:20:44.889Z,94.12
2016-09-26T04:21:44.873Z,94.45
2016-09-26T04:22:44.864Z,93.98
2016-09-26T04:23:44.858Z,94.4
2016-09-26T04:24:44.842Z,94.36
2016-09-26T04:25:44.836Z,94.74
2016-09-26T04:26:44.826Z,94.26
2016-09-26T04:27:44.811Z,94.4
2016-09-26T04:28:44.806Z,94.65
2016-09-26T04:29:44.793Z,94.45
2016-09-26T04:30:44.779Z,94.65
2016-09-26T04:31:44.771Z,94.74
2016-09-26T04:32:45.074Z,94.65
2016-09-26T04:33:44.749Z,94.45
2016-09-26T04:34:44.741Z,94.36
2016-09-26T04:35:44.731Z,94.07
2016-09-26T04:36:44.719Z,94.65
2016-09-26T04:37:44.713Z,94.36
2016-09-26T04:38:44.702Z,94.36
2016-09-26T04:39:44.689Z,94.74
2016-09-26T04:40:44.685Z,94.65
2016-09-26T04:41:44.982Z,94.65
2016-09-26T04:42:44.660Z,94.26
2016-09-26T04:43:44.682Z,94.84
2016-09-26T04:44:44.851Z,95.41
2016-09-26T04:45:44.631Z,94.84
2016-09-26T04:46:44.930Z,95.22
2016-09-26T04:47:44.606Z,94.93
2016-09-26T04:48:44.602Z,94.89
2016-09-26T04:49:44.586Z,94.98
2016-09-26T04:50:44.572Z,94.98
2016-09-26T04:51:44.566Z,94.79
2016-09-26T04:52:44.554Z,95.07
2016-09-26T04:53:44.543Z,95.84
2016-09-26T04:54:44.535Z,95.46
2016-09-26T04:55:44.838Z,95.56
2016-09-26T04:56:44.826Z,95.84
2016-09-26T04:57:44.818Z,96.13
2016-09-26T04:58:44.490Z,95.65
2016-09-26T04:59:44.481Z,95.65
2016-09-26T05:00:44.472Z,96.22
2016-09-26T05:01:44.461Z,96.13
2016-09-26T05:02:44.451Z,95.75
2016-09-26T05:03:44.451Z,95.84
2016-09-26T05:04:44.743Z,96.89
2016-09-26T05:05:44.737Z,96.89
2016-09-26T05:06:44.410Z,95.94
2016-09-26T05:07:44.393Z,96.99
2016-09-26T05:08:44.389Z,97.13
2016-09-26T05:09:44.371Z,97.42
2016-09-26T05:10:44.677Z,97.8
2016-09-26T05:11:44.352Z,97.23
2016-09-26T05:12:44.346Z,97.04
2016-09-26T05:13:44.332Z,97.61
2016-09-26T05:14:44.328Z,97.52
2016-09-26T05:15:44.316Z,98.09
2016-09-26T05:16:44.301Z,97.13
2016-09-26T05:17:44.293Z,98.28
2016-09-26T05:18:44.277Z,98.75
2016-09-26T05:19:44.269Z,98.38
2016-09-26T05:20:44.256Z,97.71
2016-09-26T05:21:44.243Z,98.28
2016-09-26T05:22:44.238Z,98.85
2016-09-26T05:23:44.223Z,98.66
2016-09-26T05:24:44.210Z,98.85
2016-09-26T05:25:44.202Z,98.09
2016-09-26T05:26:44.194Z,98.57
2016-09-26T05:27:44.179Z,98.85
2016-09-26T05:28:44.172Z,98.57
2016-09-26T05:29:44.474Z,99.43
2016-09-26T05:30:44.149Z,99.66
2016-09-26T05:31:44.137Z,98.99
2016-09-26T05:32:44.438Z,99.85
2016-09-26T05:33:44.132Z,99.57
2016-09-26T05:34:44.419Z,99.28
2016-09-26T05:35:44.095Z,99.76
2016-09-26T05:36:44.087Z,99.66
2016-09-26T05:37:44.391Z,99.66
2016-09-26T05:38:44.061Z,99.85
2016-09-26T05:39:44.055Z,99.66
2016-09-26T05:40:44.039Z,99.99
2016-09-26T05:41:44.027Z,99.09
2016-09-26T05:42:44.014Z,99.76
2016-09-26T05:43:44.317Z,99.38
2016-09-26T05:44:44.018Z,99.99
2016-09-26T05:45:43.994Z,99.38
2016-09-26T05:46:43.972Z,99.66
2016-09-26T05:47:43.966Z,99.38
2016-09-26T05:48:44.278Z,99.76
2016-09-26T05:49:43.942Z,99.66
2016-09-26T05:50:43.933Z,99.99
2016-09-26T05:51:43.917Z,99.28
2016-09-26T05:52:44.220Z,99.48
2016-09-26T05:53:43.896Z,99.95
2016-09-26T05:54:43.886Z,99.76
2016-09-26T05:55:43.874Z,99.99
2016-09-26T05:56:43.863Z,99.85
2016-09-26T05:57:43.847Z,99.38
2016-09-26T05:58:43.840Z,99.48
2016-09-26T05:59:43.824Z,99.57
2016-09-26T06:00:43.816Z,99.38
2016-09-26T06:01:44.115Z,99.85
2016-09-26T06:02:43.791Z,99.85
2016-09-26T06:03:43.781Z,99.99
2016-09-26T06:04:43.770Z,99.99
2016-09-26T06:05:43.759Z,99.95
2016-09-26T06:06:43.747Z,99.99
2016-09-26T06:07:43.735Z,99.99
2016-09-26T06:08:43.726Z,99.85
2016-09-26T06:09:43.714Z,99.99
2016-09-26T06:10:43.705Z,99.99
2016-09-26T06:11:43.692Z,99.99
2016-09-26T06:12:43.683Z,99.99
2016-09-26T06:13:43.670Z,99.95
2016-09-26T06:14:43.660Z,99.85
2016-09-26T06:15:43.654Z,99.99
2016-09-26T06:16:43.637Z,99.99
2016-09-26T06:17:43.626Z,99.99
2016-09-26T06:18:43.619Z,99.99
2016-09-26T06:19:43.601Z,99.99
2016-09-26T06:20:43.589Z,99.99
2016-09-26T06:21:43.581Z,99.99
2016-09-26T06:22:43.879Z,99.76
2016-09-26T06:23:43.875Z,99.95
2016-09-26T06:24:43.554Z,99.99
2016-09-26T06:25:43.536Z,99.99
2016-09-26T06:26:43.543Z,99.95
2016-09-26T06:27:43.527Z,99.99
2016-09-26T06:28:43.508Z,99.99
2016-09-26T06:29:43.493Z,99.99
2016-09-26T06:30:43.478Z,99.99
2016-09-26T06:31:43.476Z,99.95
2016-09-26T06:32:43.458Z,99.99
2016-09-26T06:33:43.765Z,99.99
2016-09-26T06:34:43.436Z,99.99
2016-09-26T06:35:43.419Z,99.99
2016-09-26T06:36:43.416Z,99.99
2016-09-26T06:37:43.401Z,99.48
2016-09-26T06:38:43.387Z,99.95
2016-09-26T06:39:43.378Z,99.57
2016-09-26T06:40:43.365Z,99.76
2016-09-26T06:41:43.404Z,99.85
2016-09-26T06:42:43.348Z,99.38
2016-09-26T06:43:43.333Z,99.85
2016-09-26T06:44:43.521Z,99.66
2016-09-26T06:45:43.310Z,99.57
2016-09-26T06:46:43.299Z,99.99
2016-09-26T06:47:43.599Z,99.04
2016-09-26T06:48:43.278Z,98.9
2016-09-26T06:49:43.265Z,99.43
2016-09-26T06:50:43.251Z,98.9
2016-09-26T06:51:43.247Z,99.43
2016-09-26T06:52:43.232Z,98.75
2016-09-26T06:53:43.220Z,98.99
2016-09-26T06:54:43.211Z,99.24
2016-09-26T06:55:43.196Z,98.75
2016-09-26T06:56:43.188Z,98.66
2016-09-26T06:57:43.491Z,98.57
2016-09-26T06:58:43.164Z,98.18
2016-09-26T06:59:43.151Z,98.09
2016-09-26T07:00:43.144Z,97.99
2016-09-26T07:01:43.133Z,97.8
2016-09-26T07:02:43.120Z,97.71
2016-09-26T07:03:43.114Z,97.61
2016-09-26T07:04:43.099Z,97.8
2016-09-26T07:05:43.087Z,97.42
2016-09-26T07:06:43.077Z,97.52
2016-09-26T07:07:43.064Z,97.04
2016-09-26T07:08:43.054Z,97.13
2016-09-26T07:09:43.354Z,96.66
2016-09-26T07:10:43.033Z,96.75
2016-09-26T07:11:43.026Z,96.94
2016-09-26T07:12:43.010Z,96.27
2016-09-26T07:13:42.994Z,95.98
2016-09-26T07:14:42.988Z,95.7
2016-09-26T07:15:42.976Z,96.27
2016-09-26T07:16:42.966Z,96.27
2016-09-26T07:17:42.953Z,95.89
2016-09-26T07:18:42.944Z,95.79
2016-09-26T07:19:42.939Z,95.7
2016-09-26T07:20:42.925Z,95.79
2016-09-26T07:21:42.915Z,96.84
2016-09-26T07:22:42.900Z,97.08
2016-09-26T07:23:42.900Z,96.13
2016-09-26T07:24:42.885Z,95.75
2016-09-26T07:25:42.868Z,95.75
2016-09-26T07:26:42.863Z,95.75
2016-09-26T07:27:43.167Z,95.65
2016-09-26T07:28:42.842Z,96.42
2016-09-26T07:29:42.823Z,95.75
2016-09-26T07:30:42.812Z,95.56
2016-09-26T07:31:42.805Z,95.84
2016-09-26T07:32:42.796Z,95.56
2016-09-26T07:33:42.778Z,95.17
2016-09-26T07:34:42.770Z,94.79
2016-09-26T07:35:42.758Z,95.07
2016-09-26T07:36:42.748Z,94.79
2016-09-26T07:37:42.736Z,94.89
2016-09-26T07:38:42.730Z,95.17
2016-09-26T07:39:42.718Z,94.79
2016-09-26T07:40:42.711Z,94.21
2016-09-26T07:41:43.010Z,94.98
2016-09-26T07:42:42.691Z,94.5
2016-09-26T07:43:42.674Z,94.5
2016-09-26T07:44:42.660Z,94.41
2016-09-26T07:45:42.653Z,94.41
2016-09-26T07:46:42.644Z,94.31
2016-09-26T07:47:42.630Z,94.02
2016-09-26T07:48:42.620Z,94.7
2016-09-26T07:49:42.608Z,93.59
2016-09-26T07:50:42.602Z,93.88
2016-09-26T07:51:42.904Z,94.17
2016-09-26T07:52:42.579Z,94.17
2016-09-26T07:53:42.567Z,93.69
2016-09-26T07:54:42.556Z,94.26
2016-09-26T07:55:42.552Z,93.88
2016-09-26T07:56:42.537Z,93.3
2016-09-26T07:57:42.524Z,93.59
2016-09-26T07:58:42.516Z,93.59
2016-09-26T07:59:42.513Z,93.69
2016-09-26T08:00:42.494Z,93.4
2016-09-26T08:01:42.481Z,92.73
2016-09-26T08:02:42.473Z,93.3
2016-09-26T08:03:42.464Z,92.73
2016-09-26T08:04:42.460Z,93.12
2016-09-26T08:05:42.442Z,93.3
2016-09-26T08:06:42.429Z,92.73
2016-09-26T08:07:42.418Z,92.73
2016-09-26T08:08:42.411Z,92.92
2016-09-26T08:09:42.715Z,92.63
2016-09-26T08:10:42.398Z,91.97
2016-09-26T08:11:42.380Z,91.87
2016-09-26T08:12:42.372Z,92.25
2016-09-26T08:13:42.673Z,92.4
2016-09-26T08:14:42.350Z,92.49
2016-09-26T08:15:42.344Z,92.11
2016-09-26T08:16:42.332Z,92.4
2016-09-26T08:17:42.319Z,91.63
2016-09-26T08:18:42.306Z,91.05
2016-09-26T08:19:42.303Z,90.86
2016-09-26T08:20:42.287Z,90.77
2016-09-26T08:21:42.276Z,90.67
2016-09-26T08:22:42.268Z,91.15
2016-09-26T08:23:42.261Z,90.39
2016-09-26T08:24:42.266Z,91.25
2016-09-26T08:25:42.238Z,90.96
2016-09-26T08:26:42.229Z,91.15
2016-09-26T08:27:42.219Z,91.05
2016-09-26T08:28:42.207Z,91.44
2016-09-26T08:29:42.196Z,91.25
2016-09-26T08:30:42.187Z,91.25
2016-09-26T08:31:42.181Z,90.29
2016-09-26T08:32:42.167Z,90.48
2016-09-26T08:33:42.160Z,90.96
2016-09-26T08:34:42.151Z,90.58
2016-09-26T08:35:42.136Z,90.09
2016-09-26T08:36:42.447Z,91.05
2016-09-26T08:37:42.117Z,91.05
2016-09-26T08:38:42.111Z,90.29
2016-09-26T08:39:42.099Z,90.67
2016-09-26T08:40:42.090Z,90
2016-09-26T08:41:42.088Z,90.39
2016-09-26T08:42:42.069Z,90.81
2016-09-26T08:43:42.060Z,91.1
2016-09-26T08:44:42.251Z,90.72
2016-09-26T08:45:42.044Z,90.72
2016-09-26T08:46:42.035Z,90.14
2016-09-26T08:47:42.339Z,90.05
2016-09-26T08:48:42.009Z,89.86
2016-09-26T08:49:42.012Z,89.95
2016-09-26T08:50:42.319Z,90.14
2016-09-26T08:51:41.989Z,89.76
2016-09-26T08:52:41.976Z,89.28
2016-09-26T08:53:42.276Z,89.09
2016-09-26T08:54:41.953Z,89.09
2016-09-26T08:55:41.940Z,89.37
2016-09-26T08:56:42.255Z,89.47
2016-09-26T08:57:41.925Z,88.8
2016-09-26T08:58:42.226Z,88.75
2016-09-26T08:59:42.248Z,88.27
2016-09-26T09:00:42.214Z,88.46
2016-09-26T09:01:41.886Z,88.75
2016-09-26T09:02:42.189Z,88.46
2016-09-26T09:03:41.867Z,88.56
2016-09-26T09:04:41.855Z,88.56
2016-09-26T09:05:41.860Z,89.13
2016-09-26T09:06:42.151Z,88.65
2016-09-26T09:07:41.827Z,88.65
2016-09-26T09:08:41.817Z,88.75
2016-09-26T09:09:41.809Z,87.88
2016-09-26T09:10:41.798Z,87.98
2016-09-26T09:11:42.103Z,88.65
2016-09-26T09:12:41.785Z,88.56
2016-09-26T09:13:41.769Z,88.27
2016-09-26T09:14:41.760Z,88.56
2016-09-26T09:15:41.751Z,88.75
2016-09-26T09:16:41.742Z,88.65
2016-09-26T09:17:41.730Z,88.56
2016-09-26T09:18:41.722Z,88.56
2016-09-26T09:19:41.714Z,88.37
2016-09-26T09:20:41.704Z,88.46
2016-09-26T09:21:41.694Z,88.46
2016-09-26T09:22:41.687Z,88.75
2016-09-26T09:23:41.676Z,88.65
2016-09-26T09:24:41.667Z,88.27
2016-09-26T09:25:41.656Z,88.22
2016-09-26T09:26:41.648Z,87.55
2016-09-26T09:27:41.951Z,86.97
2016-09-26T09:28:41.634Z,87.26
2016-09-26T09:29:41.930Z,87.64
2016-09-26T09:30:41.614Z,87.74
2016-09-26T09:31:41.614Z,86.78
2016-09-26T09:32:41.755Z,87.35
2016-09-26T09:33:41.585Z,86.97
2016-09-26T09:34:41.577Z,86.01
2016-09-26T09:35:41.563Z,85.72
2016-09-26T09:36:41.554Z,85.92
2016-09-26T09:37:41.551Z,86.01
2016-09-26T09:38:41.638Z,86.01
2016-09-26T09:39:41.529Z,85.58
2016-09-26T09:40:41.520Z,85.67
2016-09-26T09:41:41.511Z,84.61
2016-09-26T09:42:41.501Z,83.75
2016-09-26T09:43:41.493Z,84.61
2016-09-26T09:44:41.485Z,84.71
2016-09-26T09:45:41.473Z,85.1
2016-09-26T09:46:41.470Z,85.1
2016-09-26T09:47:41.456Z,84.23
2016-09-26T09:48:41.762Z,84.23
2016-09-26T09:49:41.441Z,84.33
2016-09-26T09:50:41.433Z,84.33
2016-09-26T09:51:41.420Z,84.61
2016-09-26T09:52:41.412Z,84.08
2016-09-26T09:53:41.453Z,83.75
2016-09-26T09:54:41.393Z,83.27
2016-09-26T09:55:41.385Z,82.93
2016-09-26T09:56:41.376Z,83.41
2016-09-26T09:57:41.370Z,83.08
2016-09-26T09:58:41.359Z,84.08
2016-09-26T09:59:41.348Z,83.8
2016-09-26T10:00:41.345Z,83.03
2016-09-26T10:01:41.338Z,82.93
2016-09-26T10:02:41.530Z,83.12
2016-09-26T10:03:41.319Z,83.03
2016-09-26T10:04:41.311Z,82.84
2016-09-26T10:05:41.300Z,82.93
2016-09-26T10:06:41.293Z,82.59
2016-09-26T10:07:41.284Z,81.05
2016-09-26T10:08:41.272Z,81.15
2016-09-26T10:09:41.265Z,81.43
2016-09-26T10:10:41.256Z,81.72
2016-09-26T10:11:41.559Z,81.34
2016-09-26T10:12:41.242Z,81.34
2016-09-26T10:13:41.233Z,81.96
2016-09-26T10:14:41.226Z,80.32
2016-09-26T10:15:41.216Z,79.75
2016-09-26T10:16:41.206Z,80.04
2016-09-26T10:17:41.201Z,78.78
2016-09-26T10:18:41.194Z,77.53
2016-09-26T10:19:41.499Z,78.21
2016-09-26T10:20:41.493Z,77.92
2016-09-26T10:21:41.167Z,76.86
2016-09-26T10:22:41.163Z,77.58
2016-09-26T10:23:41.156Z,75.84
2016-09-26T10:24:41.146Z,75.46
2016-09-26T10:25:41.145Z,76.14
2016-09-26T10:26:41.133Z,75.27
2016-09-26T10:27:41.124Z,75.94
2016-09-26T10:28:41.118Z,75.21
2016-09-26T10:29:41.425Z,75.21
2016-09-26T10:30:41.107Z,74.63
2016-09-26T10:31:41.411Z,75.21
2016-09-26T10:32:41.091Z,74.82
2016-09-26T10:33:41.080Z,75.88
2016-09-26T10:34:41.076Z,75.4
2016-09-26T10:35:41.068Z,75.21
2016-09-26T10:36:41.060Z,74.82
2016-09-26T10:37:41.054Z,73.67
2016-09-26T10:38:41.048Z,73.57
2016-09-26T10:39:41.037Z,73.28
2016-09-26T10:40:41.033Z,73.19
2016-09-26T10:41:41.025Z,74.34
2016-09-26T10:42:41.017Z,73.57
2016-09-26T10:43:41.012Z,75.4
2016-09-26T10:44:41.210Z,74.92
2016-09-26T10:45:40.999Z,73.47
2016-09-26T10:46:40.992Z,74.73
2016-09-26T10:47:40.987Z,74.63
2016-09-26T10:48:40.982Z,75.59
2016-09-26T10:49:40.971Z,74.73
2016-09-26T10:50:40.964Z,75.44
2016-09-26T10:51:40.961Z,74.67
2016-09-26T10:52:40.955Z,74.48
2016-09-26T10:53:40.945Z,72.65
2016-09-26T10:54:40.939Z,72.65
2016-09-26T10:55:40.933Z,71.97
2016-09-26T10:56:40.929Z,71.97
2016-09-26T10:57:40.921Z,72.65
2016-09-26T10:58:41.233Z,72.55
2016-09-26T10:59:40.908Z,71.49
2016-09-26T11:00:40.901Z,71.69
2016-09-26T11:01:40.895Z,70.62
2016-09-26T11:02:40.889Z,71.49
2016-09-26T11:03:40.888Z,71.01
2016-09-26T11:04:41.191Z,72.2
2016-09-26T11:05:40.870Z,71.53
2016-09-26T11:06:40.864Z,70.95
2016-09-26T11:07:40.859Z,68.44
2016-09-26T11:08:40.854Z,68.74
2016-09-26T11:09:40.844Z,69.6
2016-09-26T11:10:40.840Z,69.41
2016-09-26T11:11:41.161Z,69.85
2016-09-26T11:12:40.834Z,69.85
2016-09-26T11:13:40.817Z,70.05
2016-09-26T11:14:41.127Z,70.05
2016-09-26T11:15:41.117Z,71.72
2016-09-26T11:16:40.800Z,70.53
2016-09-26T11:17:41.108Z,70.28
2016-09-26T11:18:40.785Z,69.89
2016-09-26T11:19:40.778Z,68.74
2016-09-26T11:20:40.773Z,67.29
2016-09-26T11:21:40.770Z,68.74
2016-09-26T11:22:40.761Z,67.03
2016-09-26T11:23:40.759Z,68.58
2016-09-26T11:24:40.751Z,65.78
2016-09-26T11:25:40.753Z,65.11
2016-09-26T11:26:40.735Z,64.56
2016-09-26T11:27:40.734Z,64.56
2016-09-26T11:28:40.730Z,62.63
2016-09-26T11:29:40.719Z,63.73
2016-09-26T11:30:40.715Z,61.06
2016-09-26T11:31:40.712Z,59.45
2016-09-26T11:32:40.706Z,59.35
2016-09-26T11:33:40.706Z,58.68
2016-09-26T11:34:40.697Z,60.71
2016-09-26T11:35:40.701Z,58.58
2016-09-26T11:36:40.688Z,57.06
2016-09-26T11:37:40.683Z,56.96
2016-09-26T11:38:40.681Z,57.16
2016-09-26T11:39:40.676Z,57.74
2016-09-26T11:40:40.996Z,55.9
2016-09-26T11:41:40.667Z,55.2
2016-09-26T11:42:40.667Z,57.04
2016-09-26T11:43:40.662Z,57.32
2016-09-26T11:44:40.660Z,57.71
2016-09-26T11:45:40.650Z,56.94
2016-09-26T11:46:40.646Z,56.74
2016-09-26T11:47:40.664Z,56.07
2016-09-26T11:48:40.643Z,56.56
2016-09-26T11:49:40.646Z,56.26
2016-09-26T11:50:40.633Z,56.39
2016-09-26T11:51:40.628Z,56
2016-09-26T11:52:40.949Z,55.16
2016-09-26T11:53:40.624Z,55.16
2016-09-26T11:54:40.616Z,55.26
2016-09-26T11:55:40.943Z,54.39
2016-09-26T11:56:40.613Z,55.52
2016-09-26T11:57:40.609Z,55.23
2016-09-26T11:58:40.607Z,55.13
2016-09-26T11:59:40.602Z,55.01
2016-09-26T12:00:40.600Z,55.49
2016-09-26T12:01:40.598Z,54.79
2016-09-26T12:02:40.590Z,57.1
2016-09-26T12:03:40.606Z,58.17
2016-09-26T12:04:40.583Z,58.84
2016-09-26T12:05:40.581Z,58.07
2016-09-26T12:06:40.593Z,58.55
2016-09-26T12:07:40.890Z,59.48
2016-09-26T12:08:40.574Z,59.1
2016-09-26T12:09:40.574Z,60.26
2016-09-26T12:10:40.887Z,58.23
2016-09-26T12:11:40.875Z,58.04
2016-09-26T12:12:40.563Z,58.04
2016-09-26T12:13:40.552Z,58.72
2016-09-26T12:14:40.547Z,58.62
2016-09-26T12:15:40.862Z,58.14
2016-09-26T12:16:40.536Z,58.81
2016-09-26T12:17:40.536Z,58.72
2016-09-26T12:18:40.534Z,57.53
2016-09-26T12:19:40.528Z,57.94
2016-09-26T12:20:40.520Z,57.27
2016-09-26T12:21:40.513Z,55.94
2016-09-26T12:22:40.828Z,51.85
2016-09-26T12:23:40.532Z,49.85
2016-09-26T12:24:40.514Z,51.15
2016-09-26T12:25:40.501Z,51.93
2016-09-26T12:26:40.812Z,50.76
2016-09-26T12:27:40.806Z,50.48
2016-09-26T12:28:40.805Z,49.22
2016-09-26T12:29:40.488Z,48.59
2016-09-26T12:30:40.681Z,47.06
2016-09-26T12:31:40.479Z,47.67
2016-09-26T12:32:40.482Z,43.26
2016-09-26T12:33:40.477Z,43.26
2016-09-26T12:34:40.794Z,42.3
2016-09-26T12:35:40.470Z,42.23
2016-09-26T12:36:40.467Z,41.57
2016-09-26T12:37:40.472Z,41.01
2016-09-26T12:38:40.464Z,40.25
2016-09-26T12:39:40.466Z,39.59
2016-09-26T12:40:40.463Z,39.29
2016-09-26T12:41:40.463Z,38.23
2016-09-26T12:42:40.463Z,38.81
2016-09-26T12:43:40.462Z,40.39
2016-09-26T12:44:40.978Z,39.69
2016-09-26T12:45:40.465Z,39.29
2016-09-26T12:46:40.460Z,38.01
2016-09-26T12:47:40.465Z,38.89
2016-09-26T12:48:40.465Z,37.93
2016-09-26T12:49:40.462Z,38.03
2016-09-26T12:50:40.463Z,38.96
2016-09-26T12:51:40.666Z,39.47
2016-09-26T12:52:40.469Z,38.98
2016-09-26T12:53:40.467Z,38.71
2016-09-26T12:54:40.516Z,37.26
2016-09-26T12:55:40.468Z,37.08